CheckWX is a tool to help pilots better visualize weather data.  It is not intended as a substitute for an official pre-flight weather briefing.

21:13:14 UTC

KMBG TAF
Mobridge Municipal Airport
Mobridge, South Dakota, USA
KMBG 021621Z 0216/0312 34022G35KT 5SM -SN BLSN OVC045 FM021900 33017G26KT P6SM VCSH OVC015 FM022300 33015G23KT 2SM -SN BLSN OVC017 FM030600 33010KT P6SM OVC017

Apr-2@
16:00 UTC

Apr-2 @ 16:00 UTC

Apr-2@
19:00 UTC

Apr-2 @ 19:00 UTC

TAF KMBG 021621Z 0216/0312 34022G35KT 5SM -SN BLSN OVC045

Expired

Wind
  • 340° at 22 KTS
  • {Gusting to 35 KTS
Conditions
Light Snow, Blowing Snow
Cloud Levels
  • Overcast at 4,500' AGL

Apr-2@
19:00 UTC

Apr-2 @ 19:00 UTC

Apr-2@
23:00 UTC

Apr-2 @ 23:00 UTC

FM021900 33017G26KT P6SM VCSH OVC015

From

From Standard forecast or significant change

Wind
  • 330° at 17 KTS
  • {Gusting to 26 KTS
Conditions
Area Showers
Cloud Levels
  • Overcast at 1,500' AGL

Apr-2@
23:00 UTC

Apr-2 @ 23:00 UTC

Apr-3@
06:00 UTC

Apr-3 @ 06:00 UTC

FM022300 33015G23KT 2SM -SN BLSN OVC017

From

From Standard forecast or significant change

Wind
  • 330° at 15 KTS
  • {Gusting to 23 KTS
Conditions
Light Snow, Blowing Snow
Cloud Levels
  • Overcast at 1,700' AGL

Apr-3@
06:00 UTC

Apr-3 @ 06:00 UTC

Apr-3@
12:00 UTC

Apr-3 @ 12:00 UTC

FM030600 33010KT P6SM OVC017

From

From Standard forecast or significant change

Wind
  • 330° at 10 KTS
Cloud Levels
  • Overcast at 1,700' AGL